createdAt,value
2019-02-03T00:01:32.495Z,2.14
2019-02-03T00:04:01.036Z,2.12
2019-02-03T00:06:29.576Z,2.13
2019-02-03T00:08:58.451Z,2.11
2019-02-03T00:11:26.937Z,2.12
2019-02-03T00:13:55.424Z,2.12
2019-02-03T00:16:23.917Z,2.13
2019-02-03T00:18:52.388Z,2.14
2019-02-03T00:21:20.857Z,2.14
2019-02-03T00:23:49.623Z,2.15
2019-02-03T00:26:19.296Z,2.14
2019-02-03T00:28:47.807Z,2.16
2019-02-03T00:31:16.308Z,2.15
2019-02-03T00:33:44.771Z,2.16
2019-02-03T00:36:13.246Z,2.15
2019-02-03T00:38:41.831Z,2.15
2019-02-03T00:41:10.330Z,2.14
2019-02-03T00:43:38.803Z,2.14
2019-02-03T00:46:07.292Z,2.13
2019-02-03T00:48:35.769Z,2.14
2019-02-03T00:51:04.775Z,2.13
2019-02-03T00:53:33.273Z,2.12
2019-02-03T00:56:01.810Z,2.12
2019-02-03T00:58:30.269Z,2.13
2019-02-03T01:00:58.771Z,2.12
2019-02-03T01:03:27.316Z,2.12
2019-02-03T01:05:55.855Z,2.11
2019-02-03T01:08:24.358Z,2.11
2019-02-03T01:10:52.908Z,2.11
2019-02-03T01:13:21.371Z,2.11
2019-02-03T01:15:49.883Z,2.09
2019-02-03T01:18:18.348Z,2.09
2019-02-03T01:20:46.995Z,2.05
2019-02-03T01:23:15.491Z,2.11
2019-02-03T01:25:43.974Z,2.13
2019-02-03T01:28:12.855Z,2.15
2019-02-03T01:30:41.349Z,2.16
2019-02-03T01:33:09.812Z,2.15
2019-02-03T01:35:38.456Z,2.17
2019-02-03T01:38:07.008Z,2.16
2019-02-03T01:40:35.479Z,2.17
2019-02-03T01:43:03.949Z,2.18
2019-02-03T01:45:32.460Z,2.20
2019-02-03T01:48:00.918Z,2.20
2019-02-03T01:50:29.387Z,2.22
2019-02-03T01:52:57.907Z,2.23
2019-02-03T01:55:27.104Z,2.24
2019-02-03T01:57:55.654Z,2.24
2019-02-03T02:00:26.769Z,2.26
2019-02-03T02:02:55.692Z,2.27
2019-02-03T02:05:24.237Z,2.28
2019-02-03T02:07:52.742Z,2.29
2019-02-03T02:10:26.397Z,2.31
2019-02-03T02:12:54.948Z,2.30
2019-02-03T02:15:23.520Z,2.32
2019-02-03T02:17:52.426Z,2.31
2019-02-03T02:20:23.481Z,2.31
2019-02-03T02:22:52.045Z,2.29
2019-02-03T02:25:20.572Z,2.27
2019-02-03T02:27:49.118Z,2.25
2019-02-03T02:30:22.065Z,2.24
2019-02-03T02:32:50.615Z,2.22
2019-02-03T02:35:19.130Z,2.21
2019-02-03T02:37:47.720Z,2.19
2019-02-03T02:40:21.242Z,2.22
2019-02-03T02:42:49.695Z,2.21
2019-02-03T02:45:18.342Z,2.22
2019-02-03T02:47:47.008Z,2.23
2019-02-03T02:50:18.650Z,2.23
2019-02-03T02:52:47.160Z,2.23
2019-02-03T02:55:15.700Z,2.24
2019-02-03T02:57:44.234Z,2.25
2019-02-03T03:00:17.389Z,2.27
2019-02-03T03:02:46.376Z,2.27
2019-02-03T03:05:15.171Z,2.26
2019-02-03T03:07:43.745Z,2.27
2019-02-03T03:10:14.851Z,2.26
2019-02-03T03:12:43.398Z,2.27
2019-02-03T03:15:14.525Z,2.27
2019-02-03T03:17:42.979Z,2.28
2019-02-03T03:20:14.098Z,2.27
2019-02-03T03:22:42.676Z,2.28
2019-02-03T03:25:14.147Z,2.30
2019-02-03T03:27:42.597Z,2.32
2019-02-03T03:30:16.764Z,2.34
2019-02-03T03:32:45.519Z,2.34
2019-02-03T03:35:14.061Z,2.35
2019-02-03T03:37:43.455Z,2.36
2019-02-03T03:40:18.488Z,2.35
2019-02-03T03:42:47.007Z,2.36
2019-02-03T03:45:15.779Z,2.36
2019-02-03T03:47:44.252Z,2.36
2019-02-03T03:50:14.344Z,2.36
2019-02-03T03:52:42.849Z,2.37
2019-02-03T03:55:11.487Z,2.36
2019-02-03T03:57:39.901Z,2.36
2019-02-03T04:00:19.905Z,2.37
2019-02-03T04:02:48.736Z,2.36
2019-02-03T04:05:17.286Z,2.36
2019-02-03T04:07:45.836Z,2.38
2019-02-03T04:10:19.224Z,2.39
2019-02-03T04:12:47.682Z,2.40
2019-02-03T04:15:17.917Z,2.40
2019-02-03T04:17:46.399Z,2.40
2019-02-03T04:20:20.214Z,2.41
2019-02-03T04:22:48.709Z,2.41
2019-02-03T04:25:17.177Z,2.42
2019-02-03T04:27:45.699Z,2.43
2019-02-03T04:30:17.584Z,2.45
2019-02-03T04:32:46.034Z,2.46
2019-02-03T04:35:15.554Z,2.49
2019-02-03T04:37:44.038Z,2.51
2019-02-03T04:40:14.951Z,2.54
2019-02-03T04:42:43.425Z,2.55
2019-02-03T04:45:14.149Z,2.57
2019-02-03T04:47:42.599Z,2.59
2019-02-03T04:50:13.757Z,2.58
2019-02-03T04:52:42.282Z,2.57
2019-02-03T04:55:13.492Z,2.58
2019-02-03T04:57:41.973Z,2.58
2019-02-03T05:00:22.176Z,2.58
2019-02-03T05:02:50.627Z,2.58
2019-02-03T05:05:19.095Z,2.58
2019-02-03T05:07:47.672Z,2.57
2019-02-03T05:10:16.467Z,2.58
2019-02-03T05:12:44.929Z,2.58
2019-02-03T05:15:15.971Z,2.59
2019-02-03T05:17:44.431Z,2.60
2019-02-03T05:20:18.017Z,2.60
2019-02-03T05:22:47.168Z,2.60
2019-02-03T05:25:15.699Z,2.62
2019-02-03T05:27:44.155Z,2.62
2019-02-03T05:30:21.575Z,2.60
2019-02-03T05:32:50.029Z,2.62
2019-02-03T05:35:18.959Z,2.59
2019-02-03T05:37:47.584Z,2.62
2019-02-03T05:40:16.773Z,2.59
2019-02-03T05:42:45.302Z,2.62
2019-02-03T05:45:18.773Z,2.62
2019-02-03T05:47:50.117Z,2.65
2019-02-03T05:50:19.564Z,2.66
2019-02-03T05:52:48.083Z,2.66
2019-02-03T05:55:18.427Z,2.65
2019-02-03T05:57:46.882Z,2.67
2019-02-03T06:00:30.785Z,2.70
2019-02-03T06:02:59.249Z,2.70
2019-02-03T06:05:27.695Z,2.70
2019-02-03T06:07:56.251Z,2.70
2019-02-03T06:10:24.840Z,2.73
2019-02-03T06:12:53.758Z,2.74
2019-02-03T06:15:22.389Z,2.74
2019-02-03T06:17:50.840Z,2.74
2019-02-03T06:20:20.906Z,2.74
2019-02-03T06:22:49.501Z,2.74
2019-02-03T06:25:18.127Z,2.72
2019-02-03T06:27:46.583Z,2.72
2019-02-03T06:30:27.460Z,2.73
2019-02-03T06:32:55.910Z,2.74
2019-02-03T06:35:24.375Z,2.77
2019-02-03T06:37:52.962Z,2.78
2019-02-03T06:40:21.932Z,2.78
2019-02-03T06:42:50.396Z,2.78
2019-02-03T06:45:35.771Z,2.78
2019-02-03T06:48:04.225Z,2.77
2019-02-03T06:50:32.692Z,2.78
2019-02-03T06:53:01.223Z,2.77
2019-02-03T06:55:29.696Z,2.77
2019-02-03T06:57:58.154Z,2.76
2019-02-03T07:00:26.660Z,2.74
2019-02-03T07:02:55.128Z,2.73
2019-02-03T07:05:23.588Z,2.70
2019-02-03T07:07:52.088Z,2.71
2019-02-03T07:10:20.548Z,2.73
2019-02-03T07:12:48.997Z,2.72
2019-02-03T07:15:17.556Z,2.74
2019-02-03T07:17:46.014Z,2.74
2019-02-03T07:20:16.126Z,2.76
2019-02-03T07:22:44.671Z,2.76
2019-02-03T07:25:13.272Z,2.77
2019-02-03T07:27:41.903Z,2.77
2019-02-03T07:30:19.068Z,2.75
2019-02-03T07:32:47.559Z,2.76
2019-02-03T07:35:16.138Z,2.75
2019-02-03T07:37:44.644Z,2.77
2019-02-03T07:40:21.881Z,2.77
2019-02-03T07:42:50.748Z,2.78
2019-02-03T07:45:19.219Z,2.81
2019-02-03T07:47:47.700Z,2.83
2019-02-03T07:50:17.194Z,2.84
2019-02-03T07:52:45.655Z,2.84
2019-02-03T07:55:14.957Z,2.86
2019-02-03T07:57:43.469Z,2.85
2019-02-03T08:00:16.541Z,2.86
2019-02-03T08:02:44.995Z,2.85
2019-02-03T08:05:13.581Z,2.85
2019-02-03T08:07:42.147Z,2.84
2019-02-03T08:10:24.625Z,2.84
2019-02-03T08:12:44.030Z,2.85
2019-02-03T08:15:17.452Z,2.85
2019-02-03T08:17:45.907Z,2.88
2019-02-03T08:20:26.473Z,2.89
2019-02-03T08:22:55.019Z,2.90
2019-02-03T08:25:23.541Z,2.93
2019-02-03T08:27:52.113Z,2.93
2019-02-03T08:30:23.739Z,2.95
2019-02-03T08:32:52.184Z,2.96
2019-02-03T08:35:20.699Z,2.98
2019-02-03T08:37:49.174Z,2.99
2019-02-03T08:40:22.509Z,3.06
2019-02-03T08:42:51.092Z,3.11
2019-02-03T08:45:24.771Z,3.11
2019-02-03T08:47:53.397Z,3.18
2019-02-03T08:50:23.148Z,3.18
2019-02-03T08:52:51.635Z,3.17
2019-02-03T08:55:20.128Z,3.23
2019-02-03T08:57:48.619Z,3.24
2019-02-03T09:00:25.627Z,3.25
2019-02-03T09:02:54.145Z,3.27
2019-02-03T09:05:22.615Z,3.30
2019-02-03T09:07:51.234Z,3.35
2019-02-03T09:10:24.042Z,3.32
2019-02-03T09:12:52.497Z,3.32
2019-02-03T09:15:28.254Z,3.33
2019-02-03T09:17:56.949Z,3.42
2019-02-03T09:20:28.005Z,3.42
2019-02-03T09:22:56.532Z,3.47
2019-02-03T09:25:25.080Z,3.47
2019-02-03T09:27:53.617Z,3.48
2019-02-03T09:30:33.734Z,3.53
2019-02-03T09:33:02.189Z,3.54
2019-02-03T09:35:30.633Z,3.57
2019-02-03T09:37:59.190Z,3.57
2019-02-03T09:40:30.258Z,3.56
2019-02-03T09:42:58.805Z,3.56
2019-02-03T09:45:27.848Z,3.60
2019-02-03T09:47:56.937Z,3.61
2019-02-03T09:50:31.706Z,3.61
2019-02-03T09:53:01.652Z,3.61
2019-02-03T09:55:32.056Z,3.70
2019-02-03T09:58:01.208Z,3.69
2019-02-03T10:00:35.233Z,3.72
2019-02-03T10:03:04.835Z,3.70
2019-02-03T10:05:33.342Z,3.70
2019-02-03T10:08:01.822Z,3.71
2019-02-03T10:10:34.994Z,3.73
2019-02-03T10:13:03.656Z,3.73
2019-02-03T10:15:32.205Z,3.75
2019-02-03T10:18:00.658Z,3.77
2019-02-03T10:20:30.190Z,3.77
2019-02-03T10:22:58.662Z,3.81
2019-02-03T10:25:28.865Z,3.82
2019-02-03T10:27:57.363Z,3.80
2019-02-03T10:30:26.540Z,3.80
2019-02-03T10:32:55.436Z,3.82
2019-02-03T10:35:26.179Z,3.82
2019-02-03T10:37:54.867Z,3.82
2019-02-03T10:40:31.843Z,3.82
2019-02-03T10:43:01.055Z,3.83
2019-02-03T10:45:31.131Z,3.82
2019-02-03T10:47:59.619Z,3.83
2019-02-03T10:50:37.479Z,3.83
2019-02-03T10:53:08.431Z,3.82
2019-02-03T10:55:36.893Z,3.82
2019-02-03T10:58:05.990Z,3.87
2019-02-03T11:00:37.171Z,3.84
2019-02-03T11:03:05.957Z,3.89
2019-02-03T11:05:40.094Z,3.89
2019-02-03T11:08:10.225Z,3.88
2019-02-03T11:10:38.672Z,3.88
2019-02-03T11:13:07.141Z,3.83
2019-02-03T11:15:35.622Z,3.83
2019-02-03T11:18:04.144Z,3.83
2019-02-03T11:20:33.839Z,3.77
2019-02-03T11:23:02.442Z,3.77
2019-02-03T11:25:32.233Z,3.72
2019-02-03T11:28:00.756Z,3.72
2019-02-03T11:30:30.697Z,3.68
2019-02-03T11:33:05.831Z,3.68
2019-02-03T11:35:31.803Z,3.68
2019-02-03T11:38:00.381Z,3.67
2019-02-03T11:40:34.346Z,3.72
2019-02-03T11:43:02.931Z,3.78
2019-02-03T11:45:39.310Z,3.78
2019-02-03T11:48:10.996Z,3.80
2019-02-03T11:50:41.703Z,3.80
2019-02-03T11:53:15.183Z,3.80
2019-02-03T11:55:43.656Z,3.80
2019-02-03T11:58:12.568Z,3.76
2019-02-03T12:00:41.271Z,3.75
2019-02-03T12:03:10.054Z,3.75
2019-02-03T12:05:38.882Z,3.72
2019-02-03T12:08:08.617Z,3.75
2019-02-03T12:10:37.154Z,3.75
2019-02-03T12:13:06.648Z,3.75
2019-02-03T12:15:35.752Z,3.77
2019-02-03T12:18:04.887Z,3.80
2019-02-03T12:20:33.326Z,3.84
2019-02-03T12:23:01.829Z,3.91
2019-02-03T12:25:41.635Z,3.91
2019-02-03T12:28:10.263Z,3.93
2019-02-03T12:30:38.780Z,3.94
2019-02-03T12:33:07.895Z,3.88
2019-02-03T12:35:36.954Z,3.90
2019-02-03T12:38:06.248Z,3.85
2019-02-03T12:40:39.146Z,3.85
2019-02-03T12:43:07.706Z,3.93
2019-02-03T12:45:36.401Z,3.92
2019-02-03T12:48:06.395Z,3.93
2019-02-03T12:50:34.875Z,3.92
2019-02-03T12:53:03.338Z,3.89
2019-02-03T12:55:32.549Z,3.86
2019-02-03T12:58:01.029Z,3.80
2019-02-03T13:00:35.195Z,3.80
2019-02-03T13:03:04.278Z,3.73
2019-02-03T13:05:32.780Z,3.73
2019-02-03T13:08:01.714Z,3.69
2019-02-03T13:10:40.266Z,3.63
2019-02-03T13:13:09.461Z,3.60
2019-02-03T13:15:46.806Z,3.58
2019-02-03T13:18:15.273Z,3.59
2019-02-03T13:20:43.895Z,3.55
2019-02-03T13:23:12.544Z,3.51
2019-02-03T13:25:41.188Z,3.54
2019-02-03T13:28:09.651Z,3.54
2019-02-03T13:30:40.930Z,3.55
2019-02-03T13:33:10.527Z,3.56
2019-02-03T13:35:38.977Z,3.57
2019-02-03T13:38:07.679Z,3.56
2019-02-03T13:40:36.137Z,3.54
2019-02-03T13:43:04.944Z,3.54
2019-02-03T13:45:33.440Z,3.52
2019-02-03T13:48:01.956Z,3.46
2019-02-03T13:50:30.586Z,3.46
2019-02-03T13:52:59.164Z,3.50
2019-02-03T13:55:28.097Z,3.40
2019-02-03T13:57:57.238Z,3.40
2019-02-03T14:00:34.491Z,3.44
2019-02-03T14:03:02.949Z,3.42
2019-02-03T14:05:31.432Z,3.38
2019-02-03T14:07:59.913Z,3.38
2019-02-03T14:10:33.787Z,3.39
2019-02-03T14:13:02.485Z,3.39
2019-02-03T14:15:31.046Z,3.38
2019-02-03T14:17:59.564Z,3.36
2019-02-03T14:20:30.531Z,3.36
2019-02-03T14:22:59.351Z,3.33
2019-02-03T14:25:28.252Z,3.32
2019-02-03T14:27:56.732Z,3.24
2019-02-03T14:30:40.519Z,3.25
2019-02-03T14:33:05.050Z,3.22
2019-02-03T14:35:34.195Z,3.25
2019-02-03T14:38:03.393Z,3.22
2019-02-03T14:40:31.861Z,3.21
2019-02-03T14:43:02.211Z,3.21
2019-02-03T14:45:30.679Z,3.20
2019-02-03T14:47:59.148Z,3.19
2019-02-03T14:50:27.776Z,3.19
2019-02-03T14:53:02.587Z,3.16
2019-02-03T14:55:33.939Z,3.16
2019-02-03T14:58:02.405Z,3.11
2019-02-03T15:00:33.975Z,3.11
2019-02-03T15:03:04.088Z,3.07
2019-02-03T15:05:32.549Z,3.07
2019-02-03T15:08:01.115Z,2.98
2019-02-03T15:10:30.367Z,2.94
2019-02-03T15:12:59.175Z,2.94
2019-02-03T15:15:29.393Z,2.94
2019-02-03T15:17:58.226Z,2.94
2019-02-03T15:20:28.330Z,2.92
2019-02-03T15:22:56.887Z,2.93
2019-02-03T15:25:25.409Z,2.92
2019-02-03T15:27:54.055Z,2.94
2019-02-03T15:30:37.680Z,2.93
2019-02-03T15:33:06.213Z,2.89
2019-02-03T15:35:34.668Z,2.89
2019-02-03T15:38:03.163Z,2.94
2019-02-03T15:40:31.708Z,2.93
2019-02-03T15:43:00.535Z,2.92
2019-02-03T15:45:29.103Z,2.92
2019-02-03T15:47:57.568Z,2.91
2019-02-03T15:50:27.756Z,2.86
2019-02-03T15:52:56.380Z,2.85
2019-02-03T15:55:27.083Z,2.84
2019-02-03T15:57:55.612Z,2.85
2019-02-03T16:00:30.094Z,2.85
2019-02-03T16:02:59.679Z,2.85
2019-02-03T16:05:28.145Z,2.83
2019-02-03T16:07:56.701Z,2.83
2019-02-03T16:10:28.133Z,2.81
2019-02-03T16:12:56.581Z,2.81
2019-02-03T16:15:25.132Z,2.79
2019-02-03T16:17:53.718Z,2.79
2019-02-03T16:20:30.155Z,2.79
2019-02-03T16:23:00.330Z,2.80
2019-02-03T16:25:29.138Z,2.80
2019-02-03T16:27:57.698Z,2.77
2019-02-03T16:30:29.355Z,2.77
2019-02-03T16:32:58.173Z,2.76
2019-02-03T16:35:26.663Z,2.77
2019-02-03T16:37:55.190Z,2.75
2019-02-03T16:40:25.989Z,2.76
2019-02-03T16:42:54.490Z,2.75
2019-02-03T16:45:23.079Z,2.75
2019-02-03T16:47:52.085Z,2.75
2019-02-03T16:50:29.403Z,2.74
2019-02-03T16:52:59.100Z,2.73
2019-02-03T16:55:27.721Z,2.73
2019-02-03T16:57:56.192Z,2.71
2019-02-03T17:00:27.721Z,2.69
2019-02-03T17:02:56.172Z,2.69
2019-02-03T17:05:30.499Z,2.70
2019-02-03T17:08:00.729Z,2.68
2019-02-03T17:10:29.382Z,2.70
2019-02-03T17:12:57.887Z,2.66
2019-02-03T17:15:35.018Z,2.66
2019-02-03T17:18:03.631Z,2.67
2019-02-03T17:20:32.330Z,2.67
2019-02-03T17:23:00.784Z,2.68
2019-02-03T17:25:35.236Z,2.66
2019-02-03T17:28:03.771Z,2.68
2019-02-03T17:30:35.416Z,2.71
2019-02-03T17:33:05.538Z,2.67
2019-02-03T17:35:34.355Z,2.67
2019-02-03T17:38:02.821Z,2.69
2019-02-03T17:40:31.585Z,2.69
2019-02-03T17:43:00.068Z,2.70
2019-02-03T17:45:28.712Z,2.72
2019-02-03T17:47:57.482Z,2.72
2019-02-03T17:50:28.421Z,2.69
2019-02-03T17:52:56.882Z,2.69
2019-02-03T17:55:25.465Z,2.65
2019-02-03T17:57:53.940Z,2.65
2019-02-03T18:00:44.022Z,2.60
2019-02-03T18:03:12.481Z,2.62
2019-02-03T18:05:41.007Z,2.60
2019-02-03T18:08:10.831Z,2.59
2019-02-03T18:10:39.370Z,2.55
2019-02-03T18:13:08.385Z,2.55
2019-02-03T18:15:37.142Z,2.53
2019-02-03T18:18:07.429Z,2.52
2019-02-03T18:20:36.033Z,2.49
2019-02-03T18:23:05.551Z,2.49
2019-02-03T18:25:34.009Z,2.53
2019-02-03T18:28:02.621Z,2.51
2019-02-03T18:30:32.853Z,2.49
2019-02-03T18:33:01.639Z,2.49
2019-02-03T18:35:30.119Z,2.53
2019-02-03T18:38:04.541Z,2.55
2019-02-03T18:40:32.995Z,2.55
2019-02-03T18:43:02.086Z,2.56
2019-02-03T18:45:30.906Z,2.57
2019-02-03T18:47:59.443Z,2.64
2019-02-03T18:50:27.911Z,2.64
2019-02-03T18:52:56.405Z,2.68
2019-02-03T18:55:33.607Z,2.67
2019-02-03T18:58:02.130Z,2.67
2019-02-03T19:00:33.126Z,2.66
2019-02-03T19:03:01.663Z,2.64
2019-02-03T19:05:32.876Z,2.63
2019-02-03T19:08:01.400Z,2.63
2019-02-03T19:10:32.672Z,2.59
2019-02-03T19:13:00.302Z,2.59
2019-02-03T19:15:31.394Z,2.60
2019-02-03T19:18:00.229Z,2.56
2019-02-03T19:20:37.739Z,2.57
2019-02-03T19:23:07.627Z,2.56
2019-02-03T19:25:36.181Z,2.47
2019-02-03T19:28:05.013Z,2.47
2019-02-03T19:30:33.843Z,2.48
2019-02-03T19:33:02.295Z,2.48
2019-02-03T19:35:32.206Z,2.47
2019-02-03T19:38:00.662Z,2.46
2019-02-03T19:40:33.320Z,2.45
2019-02-03T19:43:01.814Z,2.42
2019-02-03T19:45:31.616Z,2.40
2019-02-03T19:48:00.372Z,2.37
2019-02-03T19:50:30.925Z,2.34
2019-02-03T19:52:59.447Z,2.33
2019-02-03T19:55:28.051Z,2.29
2019-02-03T19:57:56.516Z,2.26
2019-02-03T20:00:30.599Z,2.23
2019-02-03T20:02:59.127Z,2.18
2019-02-03T20:05:27.687Z,2.12
2019-02-03T20:07:56.146Z,2.11
2019-02-03T20:10:29.496Z,2.08
2019-02-03T20:12:58.364Z,2.06
2019-02-03T20:15:26.885Z,2.05
2019-02-03T20:17:57.947Z,2.02
2019-02-03T20:20:31.023Z,1.99
2019-02-03T20:22:59.475Z,1.94
2019-02-03T20:25:28.261Z,1.89
2019-02-03T20:27:56.733Z,1.84
2019-02-03T20:30:38.164Z,1.79
2019-02-03T20:32:57.057Z,1.73
2019-02-03T20:35:27.982Z,1.67
2019-02-03T20:37:56.434Z,1.62
2019-02-03T20:40:33.758Z,1.55
2019-02-03T20:43:02.212Z,1.51
2019-02-03T20:45:31.335Z,1.46
2019-02-03T20:47:59.986Z,1.40
2019-02-03T20:50:28.494Z,1.36
2019-02-03T20:52:57.382Z,1.31
2019-02-03T20:55:25.948Z,1.26
2019-02-03T20:57:54.463Z,1.22
2019-02-03T21:00:28.625Z,1.17
2019-02-03T21:02:57.113Z,1.14
2019-02-03T21:05:25.723Z,1.10
2019-02-03T21:07:54.239Z,1.07
2019-02-03T21:10:24.081Z,1.04
2019-02-03T21:12:52.529Z,1.01
2019-02-03T21:15:33.128Z,0.97
2019-02-03T21:17:56.663Z,0.95
2019-02-03T21:20:34.251Z,0.90
2019-02-03T21:23:02.761Z,0.89
2019-02-03T21:25:31.838Z,0.85
2019-02-03T21:28:00.291Z,0.83
2019-02-03T21:30:34.329Z,0.79
2019-02-03T21:33:03.127Z,0.76
2019-02-03T21:35:31.574Z,0.74
2019-02-03T21:38:00.122Z,0.69
2019-02-03T21:40:30.310Z,0.66
2019-02-03T21:42:58.932Z,0.61
2019-02-03T21:45:27.570Z,0.57
2019-02-03T21:47:56.020Z,0.53
2019-02-03T21:50:29.848Z,0.49
2019-02-03T21:52:58.441Z,0.43
2019-02-03T21:55:27.056Z,0.39
2019-02-03T21:57:55.880Z,0.34
2019-02-03T22:00:32.076Z,0.31
2019-02-03T22:03:00.672Z,0.27
2019-02-03T22:05:29.962Z,0.26
2019-02-03T22:07:58.542Z,0.23
2019-02-03T22:10:35.214Z,0.20
2019-02-03T22:13:04.142Z,0.16
2019-02-03T22:15:32.682Z,0.12
2019-02-03T22:18:01.197Z,0.09
2019-02-03T22:20:29.757Z,0.05
2019-02-03T22:22:58.204Z,-0.01
2019-02-03T22:25:26.658Z,-0.04
2019-02-03T22:27:55.215Z,-0.08
2019-02-03T22:30:26.843Z,-0.11
2019-02-03T22:32:55.459Z,-0.15
2019-02-03T22:35:24.033Z,-0.19
2019-02-03T22:37:52.642Z,-0.23
2019-02-03T22:40:21.697Z,-0.26
2019-02-03T22:42:50.204Z,-0.28
2019-02-03T22:45:22.901Z,-0.30
2019-02-03T22:47:51.442Z,-0.32
2019-02-03T22:50:27.896Z,-0.33
2019-02-03T22:52:57.039Z,-0.34
2019-02-03T22:55:25.506Z,-0.36
2019-02-03T22:57:54.086Z,-0.38
2019-02-03T23:00:27.449Z,-0.40
2019-02-03T23:02:55.989Z,-0.41
2019-02-03T23:05:24.601Z,-0.42
2019-02-03T23:07:53.059Z,-0.43
2019-02-03T23:10:21.523Z,-0.47
2019-02-03T23:12:50.174Z,-0.49
2019-02-03T23:15:19.474Z,-0.50
2019-02-03T23:17:47.941Z,-0.52
2019-02-03T23:20:16.511Z,-0.55
2019-02-03T23:22:44.979Z,-0.56
2019-02-03T23:25:13.520Z,-0.60
2019-02-03T23:27:42.021Z,-0.60
2019-02-03T23:30:13.875Z,-0.61
2019-02-03T23:32:42.563Z,-0.63
2019-02-03T23:35:11.106Z,-0.66
2019-02-03T23:37:39.641Z,-0.68
2019-02-03T23:40:13.206Z,-0.69
2019-02-03T23:42:41.790Z,-0.70
2019-02-03T23:45:12.840Z,-0.72
2019-02-03T23:47:41.375Z,-0.73
2019-02-03T23:50:20.711Z,-0.74
2019-02-03T23:52:49.249Z,-0.75
2019-02-03T23:55:17.862Z,-0.76
2019-02-03T23:57:46.445Z,-0.78
